Time;durP1;ratioP1;P1;durP2;ratioP2;P2;SDS_P1;SDS_P2;PMS_P1;PMS_P2;Temp;Humidity;BMP_temperature;BMP_pressure;BME280_temperature;BME280_humidity;BME280_pressure;Samples;Min_cycle;Max_cycle;Signal;HPM_P1;HPM_P2
2022/05/08 00:01:01;;;;;;;18.53;13.80;;;;;;;;;;5030834;28;20499;-52
2022/05/08 00:03:27;;;;;;;16.83;15.03;;;;;;;;;;5030770;28;20504;-53
2022/05/08 00:05:53;;;;;;;15.03;13.50;;;;;;;;;;5030723;28;20920;-52
2022/05/08 00:08:20;;;;;;;17.77;15.30;;;;;;;;;;5030643;28;20412;-52
2022/05/08 00:10:46;;;;;;;17.13;14.07;;;;;;;;;;5031016;28;20463;-53
2022/05/08 00:13:12;;;;;;;17.60;13.80;;;;;;;;;;5029631;28;20420;-59
2022/05/08 00:15:38;;;;;;;17.03;14.73;;;;;;;;;;5030770;28;20889;-54
2022/05/08 00:18:05;;;;;;;20.00;15.57;;;;;;;;;;5030743;28;20417;-60
2022/05/08 00:20:31;;;;;;;18.77;15.20;;;;;;;;;;5030430;28;20456;-60
2022/05/08 00:22:57;;;;;;;19.03;15.10;;;;;;;;;;5030663;28;20408;-53
2022/05/08 00:25:25;;;;;;;18.80;14.20;;;;;;;;;;5030531;28;20757;-60
2022/05/08 00:27:51;;;;;;;16.23;14.47;;;;;;;;;;5030384;28;21006;-57
2022/05/08 00:30:17;;;;;;;16.93;14.50;;;;;;;;;;5030589;28;20405;-54
2022/05/08 00:32:43;;;;;;;20.67;16.10;;;;;;;;;;5030463;28;20419;-53
2022/05/08 00:35:10;;;;;;;21.10;15.70;;;;;;;;;;5030524;28;20413;-57
2022/05/08 00:37:36;;;;;;;19.87;16.10;;;;;;;;;;5030366;28;20420;-51
2022/05/08 00:40:02;;;;;;;23.30;16.50;;;;;;;;;;5012643;28;20425;-51
2022/05/08 00:42:28;;;;;;;17.80;15.90;;;;;;;;;;5030326;28;20427;-53
2022/05/08 00:44:54;;;;;;;21.97;16.97;;;;;;;;;;5030251;28;20409;-54
2022/05/08 00:47:20;;;;;;;19.53;16.70;;;;;;;;;;5030110;28;20520;-53
2022/05/08 00:49:49;;;;;;;18.90;16.90;;;;;;;;;;5012630;28;20432;-53
2022/05/08 00:52:16;;;;;;;21.40;16.07;;;;;;;;;;5030453;28;20424;-54
2022/05/08 00:54:43;;;;;;;21.87;16.43;;;;;;;;;;5030210;28;20413;-74
2022/05/08 00:57:12;;;;;;;19.00;17.00;;;;;;;;;;5030003;28;20417;-64
2022/05/08 00:59:38;;;;;;;23.23;16.77;;;;;;;;;;5029950;28;20409;-59
2022/05/08 01:02:05;;;;;;;20.17;17.10;;;;;;;;;;5030033;28;20469;-65
2022/05/08 01:04:31;;;;;;;19.90;16.67;;;;;;;;;;5029962;28;20409;-63
2022/05/08 01:06:57;;;;;;;19.70;16.97;;;;;;;;;;5030104;28;20463;-59
2022/05/08 01:09:23;;;;;;;21.00;16.73;;;;;;;;;;5030037;28;20412;-56
2022/05/08 01:11:49;;;;;;;18.03;16.13;;;;;;;;;;5029956;28;20424;-54
2022/05/08 01:14:17;;;;;;;20.93;17.43;;;;;;;;;;5029948;28;20413;-54
2022/05/08 01:16:43;;;;;;;25.47;17.90;;;;;;;;;;5030055;28;20873;-57
2022/05/08 01:19:09;;;;;;;22.63;18.17;;;;;;;;;;5029701;28;20469;-57
2022/05/08 01:21:44;;;;;;;22.50;18.70;;;;;;;;;;5029591;28;20483;-56
2022/05/08 01:24:10;;;;;;;26.20;19.70;;;;;;;;;;5029181;28;20415;-52
2022/05/08 01:26:36;;;;;;;24.13;19.60;;;;;;;;;;5029576;28;20476;-53
2022/05/08 01:29:03;;;;;;;24.50;20.20;;;;;;;;;;5029653;28;20413;-60
2022/05/08 01:31:30;;;;;;;25.43;19.43;;;;;;;;;;5029408;28;20463;-53
2022/05/08 01:33:56;;;;;;;22.07;19.10;;;;;;;;;;5011742;28;20776;-51
2022/05/08 01:36:22;;;;;;;25.23;19.57;;;;;;;;;;5029556;28;20417;-56
2022/05/08 01:38:48;;;;;;;23.40;19.93;;;;;;;;;;5029560;28;20500;-55
2022/05/08 01:41:15;;;;;;;25.33;18.83;;;;;;;;;;5029725;28;20477;-58
2022/05/08 01:43:41;;;;;;;27.10;19.50;;;;;;;;;;5011783;28;20413;-56
2022/05/08 01:46:09;;;;;;;25.53;19.60;;;;;;;;;;5029318;28;21027;-56
2022/05/08 01:48:35;;;;;;;24.63;20.00;;;;;;;;;;5029484;28;20416;-65
2022/05/08 01:51:02;;;;;;;29.30;20.33;;;;;;;;;;5029378;28;20400;-56
2022/05/08 01:53:33;;;;;;;24.83;19.93;;;;;;;;;;5029326;28;20453;-51
2022/05/08 01:55:59;;;;;;;23.37;19.40;;;;;;;;;;5029194;28;20440;-55
2022/05/08 01:58:26;;;;;;;25.70;19.83;;;;;;;;;;5011649;28;20751;-54
2022/05/08 02:00:53;;;;;;;26.97;19.10;;;;;;;;;;5011475;28;20829;-58
2022/05/08 02:03:19;;;;;;;33.03;20.40;;;;;;;;;;5029222;28;20818;-56
2022/05/08 02:05:46;;;;;;;27.37;20.20;;;;;;;;;;5029208;28;20461;-60
2022/05/08 02:08:12;;;;;;;25.67;19.10;;;;;;;;;;5029233;28;20417;-52
2022/05/08 02:10:41;;;;;;;26.70;19.70;;;;;;;;;;5028981;28;20412;-59
2022/05/08 02:13:08;;;;;;;24.20;19.57;;;;;;;;;;5029056;28;20977;-57
2022/05/08 02:15:34;;;;;;;22.23;19.80;;;;;;;;;;5029129;28;20405;-64
2022/05/08 02:18:01;;;;;;;25.63;19.60;;;;;;;;;;5028983;28;20452;-53
2022/05/08 02:20:28;;;;;;;25.87;19.40;;;;;;;;;;5028921;28;20501;-54
2022/05/08 02:22:57;;;;;;;24.77;19.80;;;;;;;;;;5028862;28;20400;-54
2022/05/08 02:25:23;;;;;;;24.57;19.47;;;;;;;;;;5028824;28;20411;-57
2022/05/08 02:27:52;;;;;;;26.13;19.70;;;;;;;;;;5028855;28;20476;-54
2022/05/08 02:30:20;;;;;;;25.23;20.93;;;;;;;;;;5028804;28;20409;-58
2022/05/08 02:32:46;;;;;;;34.53;19.80;;;;;;;;;;5029053;28;20495;-52
2022/05/08 02:35:17;;;;;;;27.73;20.60;;;;;;;;;;5011087;28;20416;-56
2022/05/08 02:37:43;;;;;;;23.13;19.07;;;;;;;;;;5032286;28;20826;-58
2022/05/08 02:40:09;;;;;;;24.17;19.30;;;;;;;;;;5014564;28;20425;-51
2022/05/08 02:42:38;;;;;;;29.97;20.07;;;;;;;;;;5032258;28;20403;-51
2022/05/08 02:45:05;;;;;;;25.33;19.70;;;;;;;;;;5032216;28;20470;-53
2022/05/08 02:47:34;;;;;;;26.60;20.00;;;;;;;;;;5031682;28;20956;-52
2022/05/08 02:50:00;;;;;;;26.00;19.20;;;;;;;;;;5031894;28;20405;-50
2022/05/08 02:52:26;;;;;;;26.60;19.20;;;;;;;;;;5031855;28;20417;-56
2022/05/08 02:54:52;;;;;;;20.80;17.67;;;;;;;;;;5031829;28;20454;-55
2022/05/08 03:00:06;;;;;;;25.60;18.93;;;;;;;;;;5032119;28;20404;-53
2022/05/08 03:02:36;;;;;;;26.77;20.00;;;;;;;;;;5031925;28;20504;-54
2022/05/08 03:05:02;;;;;;;28.00;19.33;;;;;;;;;;5031854;28;20396;-51
2022/05/08 03:07:29;;;;;;;27.00;20.30;;;;;;;;;;5031652;28;20475;-51
2022/05/08 03:09:55;;;;;;;26.17;19.40;;;;;;;;;;5031814;28;20401;-51
2022/05/08 03:12:21;;;;;;;23.00;19.13;;;;;;;;;;5031646;28;20427;-52
2022/05/08 03:14:47;;;;;;;24.97;18.60;;;;;;;;;;5031704;28;20412;-53
2022/05/08 03:17:13;;;;;;;25.63;19.57;;;;;;;;;;5031783;28;20427;-52
2022/05/08 03:19:39;;;;;;;24.00;19.30;;;;;;;;;;5031575;28;20413;-51
2022/05/08 03:22:06;;;;;;;26.47;18.80;;;;;;;;;;5031436;28;20465;-52
2022/05/08 03:24:32;;;;;;;26.50;18.93;;;;;;;;;;5031508;28;20408;-53
2022/05/08 03:26:58;;;;;;;24.97;19.30;;;;;;;;;;5031440;28;20990;-51
2022/05/08 03:29:26;;;;;;;25.00;19.33;;;;;;;;;;5031490;28;20416;-50
2022/05/08 03:31:53;;;;;;;21.57;18.00;;;;;;;;;;5031365;28;20424;-54
2022/05/08 03:34:19;;;;;;;23.20;18.87;;;;;;;;;;5031460;28;20412;-53
2022/05/08 03:36:45;;;;;;;27.83;20.30;;;;;;;;;;5013733;28;20421;-55
2022/05/08 03:39:14;;;;;;;23.00;19.13;;;;;;;;;;5031846;28;20427;-77
2022/05/08 03:41:40;;;;;;;23.20;18.97;;;;;;;;;;5031344;28;20840;-70
2022/05/08 03:44:06;;;;;;;24.70;19.90;;;;;;;;;;5031204;28;20908;-77
2022/05/08 03:46:32;;;;;;;24.53;19.40;;;;;;;;;;5030889;28;20952;-75
2022/05/08 03:48:58;;;;;;;30.03;20.23;;;;;;;;;;5013591;28;20429;-73
2022/05/08 03:51:24;;;;;;;22.80;18.47;;;;;;;;;;5031215;28;20412;-77
2022/05/08 03:53:50;;;;;;;26.70;20.10;;;;;;;;;;5030987;28;20417;-64
2022/05/08 03:56:16;;;;;;;30.10;19.17;;;;;;;;;;5031199;28;20412;-55
2022/05/08 03:58:43;;;;;;;24.07;19.10;;;;;;;;;;5031270;28;20503;-53
2022/05/08 04:01:09;;;;;;;24.17;19.47;;;;;;;;;;5030975;28;20430;-50
2022/05/08 04:03:39;;;;;;;26.93;19.27;;;;;;;;;;5030959;28;20409;-75
2022/05/08 04:06:05;;;;;;;25.43;19.27;;;;;;;;;;5030623;28;20551;-76
2022/05/08 04:08:32;;;;;;;27.43;18.73;;;;;;;;;;5013132;28;20450;-75
2022/05/08 04:10:58;;;;;;;30.13;19.73;;;;;;;;;;5030718;28;20412;-76
2022/05/08 04:13:24;;;;;;;22.93;18.13;;;;;;;;;;5030547;28;20513;-73
2022/05/08 04:18:35;;;;;;;24.87;18.93;;;;;;;;;;5030916;28;20504;-75
2022/05/08 04:21:01;;;;;;;25.70;19.47;;;;;;;;;;5030481;28;20808;-68
2022/05/08 04:26:12;;;;;;;25.33;17.13;;;;;;;;;;5030336;28;20467;-61
2022/05/08 04:28:38;;;;;;;23.80;19.60;;;;;;;;;;5030353;28;20413;-75
2022/05/08 04:31:07;;;;;;;25.87;18.60;;;;;;;;;;5030348;28;20401;-78
2022/05/08 04:33:33;;;;;;;25.67;18.57;;;;;;;;;;5030392;28;20409;-76
2022/05/08 04:35:59;;;;;;;25.27;19.50;;;;;;;;;;5030423;28;20453;-68
2022/05/08 04:38:25;;;;;;;26.60;18.57;;;;;;;;;;5030360;28;20405;-65
2022/05/08 04:40:51;;;;;;;23.50;19.63;;;;;;;;;;5030309;28;20412;-57
2022/05/08 04:43:17;;;;;;;21.60;17.90;;;;;;;;;;5030458;28;20405;-51
2022/05/08 04:45:46;;;;;;;20.90;17.00;;;;;;;;;;5030323;28;20764;-73
2022/05/08 04:48:12;;;;;;;26.33;17.97;;;;;;;;;;5030134;28;20462;-54
2022/05/08 04:50:39;;;;;;;20.57;17.50;;;;;;;;;;5030159;28;20405;-65
2022/05/08 04:53:05;;;;;;;22.10;17.20;;;;;;;;;;5030096;28;20445;-52
2022/05/08 04:55:31;;;;;;;25.73;18.00;;;;;;;;;;5030086;28;20408;-54
2022/05/08 04:57:57;;;;;;;23.30;16.80;;;;;;;;;;5029611;28;20917;-54
2022/05/08 05:00:23;;;;;;;20.60;16.93;;;;;;;;;;5029908;28;20417;-56
2022/05/08 05:02:49;;;;;;;19.50;17.10;;;;;;;;;;5030053;28;21082;-65
2022/05/08 05:05:15;;;;;;;18.90;15.50;;;;;;;;;;5030226;28;20415;-74
2022/05/08 05:07:42;;;;;;;22.23;17.10;;;;;;;;;;5029923;28;20471;-68
2022/05/08 05:10:11;;;;;;;18.17;15.70;;;;;;;;;;5030089;28;20400;-62
2022/05/08 05:12:38;;;;;;;21.30;16.73;;;;;;;;;;5029856;28;20407;-65
2022/05/08 05:15:05;;;;;;;21.37;16.80;;;;;;;;;;5029889;28;20408;-57
2022/05/08 05:17:31;;;;;;;18.47;15.77;;;;;;;;;;5012280;28;20770;-59
2022/05/08 05:19:57;;;;;;;20.67;15.87;;;;;;;;;;5029610;28;20409;-58
2022/05/08 05:22:23;;;;;;;20.43;15.60;;;;;;;;;;5029785;28;20411;-59
2022/05/08 05:24:49;;;;;;;18.63;15.70;;;;;;;;;;5029683;28;20975;-55
2022/05/08 05:27:16;;;;;;;18.73;15.60;;;;;;;;;;5029776;28;20504;-59
2022/05/08 05:29:42;;;;;;;17.70;15.60;;;;;;;;;;5029653;28;20405;-52
2022/05/08 05:32:08;;;;;;;18.13;16.20;;;;;;;;;;5029697;28;20417;-60
2022/05/08 05:34:34;;;;;;;20.07;16.40;;;;;;;;;;5029692;28;20892;-58
2022/05/08 05:37:00;;;;;;;19.20;15.73;;;;;;;;;;5029586;28;20416;-59
2022/05/08 05:39:26;;;;;;;22.23;15.53;;;;;;;;;;5029693;28;20500;-57
2022/05/08 05:41:52;;;;;;;18.10;16.03;;;;;;;;;;5029488;28;20428;-53
2022/05/08 05:44:18;;;;;;;20.80;16.90;;;;;;;;;;5029420;28;20404;-52
2022/05/08 05:49:30;;;;;;;20.30;15.83;;;;;;;;;;5029422;28;20504;-54
2022/05/08 05:51:56;;;;;;;20.80;15.90;;;;;;;;;;5029392;28;20461;-53
2022/05/08 05:54:22;;;;;;;21.80;16.57;;;;;;;;;;5029338;28;20979;-65
2022/05/08 05:56:49;;;;;;;25.53;15.60;;;;;;;;;;5029251;28;20461;-54
2022/05/08 05:59:15;;;;;;;19.90;15.90;;;;;;;;;;5029482;28;20400;-59
2022/05/08 06:01:41;;;;;;;19.67;15.37;;;;;;;;;;5029121;28;20410;-71
2022/05/08 06:04:07;;;;;;;19.73;15.27;;;;;;;;;;5029199;28;20416;-59
2022/05/08 06:06:33;;;;;;;19.70;15.70;;;;;;;;;;5029104;28;20464;-54
2022/05/08 06:08:59;;;;;;;18.90;13.90;;;;;;;;;;5011395;28;20432;-52
2022/05/08 06:11:25;;;;;;;18.07;14.60;;;;;;;;;;5030923;28;20879;-54
2022/05/08 06:13:51;;;;;;;19.03;15.70;;;;;;;;;;5032522;28;20450;-52
2022/05/08 06:16:18;;;;;;;20.90;15.30;;;;;;;;;;5032758;28;20404;-58
2022/05/08 06:18:44;;;;;;;19.70;14.47;;;;;;;;;;5032623;28;20420;-58
2022/05/08 06:21:10;;;;;;;16.80;14.30;;;;;;;;;;5032424;28;20460;-57
2022/05/08 06:23:36;;;;;;;17.03;13.60;;;;;;;;;;5031813;28;20412;-52
2022/05/08 06:26:03;;;;;;;17.20;13.77;;;;;;;;;;5031265;28;20513;-55
2022/05/08 06:28:36;;;;;;;17.70;13.90;;;;;;;;;;5031398;28;20413;-62
2022/05/08 06:31:02;;;;;;;16.90;13.40;;;;;;;;;;5031597;28;20413;-60
2022/05/08 06:33:29;;;;;;;16.07;13.83;;;;;;;;;;5031332;28;20409;-66
2022/05/08 06:35:55;;;;;;;15.60;13.27;;;;;;;;;;5031257;28;20428;-54
2022/05/08 06:38:21;;;;;;;17.20;13.40;;;;;;;;;;5031231;28;20420;-63
2022/05/08 06:40:47;;;;;;;17.33;12.93;;;;;;;;;;5031539;28;20408;-53
2022/05/08 06:43:13;;;;;;;14.70;12.53;;;;;;;;;;5031515;28;20761;-65
2022/05/08 06:45:39;;;;;;;17.27;13.63;;;;;;;;;;5031257;28;20420;-58
2022/05/08 06:48:06;;;;;;;13.60;12.20;;;;;;;;;;5031020;28;20464;-54
2022/05/08 06:50:33;;;;;;;13.43;12.03;;;;;;;;;;5031104;28;20411;-62
2022/05/08 06:52:59;;;;;;;15.60;12.53;;;;;;;;;;5031098;28;20413;-58
2022/05/08 06:55:26;;;;;;;19.40;13.00;;;;;;;;;;5031015;28;20930;-61
2022/05/08 06:57:51;;;;;;;14.70;12.33;;;;;;;;;;5031066;28;20412;-52
2022/05/08 07:03:04;;;;;;;12.73;11.43;;;;;;;;;;5031056;28;20411;-68
2022/05/08 07:05:30;;;;;;;13.30;11.70;;;;;;;;;;5030794;28;20425;-66
2022/05/08 07:07:57;;;;;;;14.70;12.13;;;;;;;;;;5030923;28;20554;-67
2022/05/08 07:10:23;;;;;;;13.57;12.10;;;;;;;;;;5030774;28;20405;-64
2022/05/08 07:12:49;;;;;;;14.27;11.77;;;;;;;;;;5030763;28;20425;-72
2022/05/08 07:15:15;;;;;;;15.07;12.80;;;;;;;;;;5030953;28;20511;-65
2022/05/08 07:17:42;;;;;;;12.90;10.93;;;;;;;;;;5030663;28;20174;-63
2022/05/08 07:20:09;;;;;;;12.03;10.80;;;;;;;;;;5030553;28;20453;-72
2022/05/08 07:22:35;;;;;;;13.27;11.80;;;;;;;;;;5029987;28;20408;-68
2022/05/08 07:25:02;;;;;;;19.60;10.77;;;;;;;;;;5030345;28;20417;-62
2022/05/08 07:27:36;;;;;;;12.90;11.60;;;;;;;;;;5030281;28;20476;-62
2022/05/08 07:30:02;;;;;;;11.47;10.37;;;;;;;;;;5030460;28;20462;-62
2022/05/08 07:32:28;;;;;;;11.80;10.60;;;;;;;;;;5030093;28;20420;-57
2022/05/08 07:37:41;;;;;;;13.00;11.40;;;;;;;;;;5030717;28;20457;-53
2022/05/08 07:40:07;;;;;;;12.80;11.03;;;;;;;;;;5030633;28;20925;-70
2022/05/08 07:42:33;;;;;;;11.60;10.43;;;;;;;;;;5031095;28;20439;-61
2022/05/08 07:44:59;;;;;;;17.33;11.53;;;;;;;;;;5031167;28;20432;-56
2022/05/08 07:47:25;;;;;;;19.47;11.20;;;;;;;;;;5013637;28;21128;-60
2022/05/08 07:49:51;;;;;;;13.93;11.17;;;;;;;;;;5031046;28;20401;-62
2022/05/08 07:52:17;;;;;;;15.83;12.03;;;;;;;;;;5031244;28;20907;-66
2022/05/08 07:54:45;;;;;;;13.87;10.10;;;;;;;;;;5031161;28;20412;-64
2022/05/08 07:57:11;;;;;;;12.60;11.30;;;;;;;;;;5030871;28;20447;-59
2022/05/08 07:59:37;;;;;;;13.67;10.87;;;;;;;;;;5031053;28;21297;-61
2022/05/08 08:02:03;;;;;;;11.93;10.70;;;;;;;;;;5023594;28;20514;-56
2022/05/08 08:04:30;;;;;;;14.90;11.43;;;;;;;;;;5011281;28;20474;-61
2022/05/08 08:06:55;;;;;;;11.43;10.33;;;;;;;;;;5010867;28;20461;-66
2022/05/08 08:09:22;;;;;;;11.10;10.00;;;;;;;;;;5011178;28;20424;-59
2022/05/08 08:11:48;;;;;;;10.87;9.63;;;;;;;;;;5011147;28;20410;-58
2022/05/08 08:14:14;;;;;;;11.73;9.60;;;;;;;;;;5011293;28;20449;-57
2022/05/08 08:16:40;;;;;;;11.50;10.30;;;;;;;;;;5011007;28;20894;-54
2022/05/08 08:19:06;;;;;;;11.97;10.20;;;;;;;;;;5010895;28;20413;-55
2022/05/08 08:21:33;;;;;;;10.17;9.13;;;;;;;;;;5010755;28;20964;-56
2022/05/08 08:23:59;;;;;;;9.87;8.97;;;;;;;;;;5010982;28;20477;-55
2022/05/08 08:26:25;;;;;;;11.50;10.20;;;;;;;;;;5010969;28;20536;-56
2022/05/08 08:28:51;;;;;;;10.47;9.40;;;;;;;;;;5010899;28;20431;-55
2022/05/08 08:31:18;;;;;;;13.37;8.97;;;;;;;;;;5011035;28;20534;-61
2022/05/08 08:33:45;;;;;;;9.80;8.87;;;;;;;;;;5009909;28;20489;-54
2022/05/08 08:36:11;;;;;;;10.53;8.40;;;;;;;;;;5010584;28;20413;-53
2022/05/08 08:38:37;;;;;;;8.47;7.67;;;;;;;;;;5010783;28;20415;-57
2022/05/08 08:41:04;;;;;;;10.77;9.77;;;;;;;;;;5010832;28;20459;-57
2022/05/08 08:49:04;;;;;;;12.97;10.50;;;;;;;;;;5010810;28;20475;-56
2022/05/08 08:51:33;;;;;;;12.00;10.80;;;;;;;;;;5010577;28;20410;-57
2022/05/08 08:54:03;;;;;;;12.87;10.50;;;;;;;;;;5010444;28;20406;-53
2022/05/08 08:56:29;;;;;;;12.83;11.53;;;;;;;;;;4992778;28;20432;-55
2022/05/08 08:58:56;;;;;;;12.43;10.10;;;;;;;;;;5010326;28;20508;-55
2022/05/08 09:01:22;;;;;;;11.83;10.63;;;;;;;;;;5010243;28;21029;-52
2022/05/08 09:03:48;;;;;;;12.47;10.40;;;;;;;;;;5010351;28;20420;-53
2022/05/08 09:06:14;;;;;;;11.80;9.97;;;;;;;;;;5010672;28;20913;-53
2022/05/08 09:08:40;;;;;;;11.87;10.63;;;;;;;;;;4992756;28;20797;-53
2022/05/08 09:11:07;;;;;;;15.07;11.70;;;;;;;;;;5010539;28;20401;-54
2022/05/08 09:13:34;;;;;;;11.33;10.23;;;;;;;;;;5010164;28;20508;-55
2022/05/08 09:16:01;;;;;;;11.30;9.93;;;;;;;;;;4992573;28;20402;-57
2022/05/08 09:18:27;;;;;;;12.20;10.40;;;;;;;;;;5010264;28;20414;-55
2022/05/08 09:20:57;;;;;;;13.20;11.00;;;;;;;;;;4997424;28;20505;-57
2022/05/08 09:23:23;;;;;;;14.43;10.67;;;;;;;;;;5010432;28;20918;-55
2022/05/08 09:25:50;;;;;;;11.00;9.90;;;;;;;;;;5009880;28;20759;-54
2022/05/08 09:28:20;;;;;;;12.67;10.27;;;;;;;;;;5010116;28;20417;-57
2022/05/08 09:31:12;;;;;;;16.23;10.03;;;;;;;;;;5010001;28;20409;-54
2022/05/08 09:33:39;;;;;;;17.60;12.83;;;;;;;;;;5009481;28;20437;-54
2022/05/08 09:36:07;;;;;;;19.50;10.07;;;;;;;;;;5009839;28;20402;-53
2022/05/08 09:38:48;;;;;;;12.47;9.80;;;;;;;;;;5009733;28;20414;-52
2022/05/08 09:41:20;;;;;;;12.63;10.40;;;;;;;;;;5009944;28;20410;-56
2022/05/08 09:43:47;;;;;;;12.80;11.03;;;;;;;;;;5009809;28;20543;-53
2022/05/08 09:46:13;;;;;;;12.77;11.43;;;;;;;;;;5012742;28;20441;-51
2022/05/08 09:48:39;;;;;;;21.90;11.40;;;;;;;;;;5013279;28;20416;-58
2022/05/08 09:51:13;;;;;;;13.60;10.23;;;;;;;;;;5012938;28;20878;-54
2022/05/08 09:53:40;;;;;;;14.17;10.40;;;;;;;;;;5013030;28;20918;-55
2022/05/08 09:56:08;;;;;;;12.43;10.17;;;;;;;;;;5012944;28;20460;-60
2022/05/08 09:58:34;;;;;;;14.10;10.83;;;;;;;;;;5013076;28;20422;-56
2022/05/08 10:01:01;;;;;;;14.20;12.70;;;;;;;;;;5013092;28;20430;-59
2022/05/08 10:03:28;;;;;;;11.90;9.63;;;;;;;;;;5012899;28;20413;-63
2022/05/08 10:05:55;;;;;;;13.70;11.50;;;;;;;;;;5012951;28;20447;-73
2022/05/08 10:08:25;;;;;;;11.97;9.50;;;;;;;;;;5012976;28;20424;-58
2022/05/08 10:13:56;;;;;;;13.03;10.70;;;;;;;;;;5012801;28;20433;-66
2022/05/08 10:16:41;;;;;;;10.80;9.70;;;;;;;;;;5012833;28;20412;-61
2022/05/08 10:19:33;;;;;;;18.40;10.63;;;;;;;;;;5012889;28;20405;-68
2022/05/08 10:24:28;;;;;;;15.07;11.50;;;;;;;;;;5013065;28;20413;-65
2022/05/08 10:27:15;;;;;;;12.13;10.93;;;;;;;;;;5012480;28;20465;-57
2022/05/08 10:30:02;;;;;;;15.20;10.30;;;;;;;;;;4994623;28;20420;-58
2022/05/08 10:32:31;;;;;;;13.87;10.43;;;;;;;;;;4994354;28;20828;-56
2022/05/08 10:35:15;;;;;;;10.50;8.60;;;;;;;;;;4994083;28;20834;-55
2022/05/08 10:37:51;;;;;;;10.67;8.50;;;;;;;;;;5011700;28;20925;-54
2022/05/08 10:40:23;;;;;;;11.73;10.00;;;;;;;;;;5011699;28;20431;-57
2022/05/08 10:42:49;;;;;;;16.63;9.80;;;;;;;;;;5011432;28;20901;-54
2022/05/08 10:45:31;;;;;;;9.83;8.70;;;;;;;;;;5011834;28;20539;-54
2022/05/08 10:47:58;;;;;;;13.50;9.40;;;;;;;;;;5011293;28;20973;-52
2022/05/08 10:50:24;;;;;;;15.80;9.30;;;;;;;;;;4993979;28;20409;-55
2022/05/08 10:52:50;;;;;;;9.57;7.57;;;;;;;;;;5011428;28;20440;-53
2022/05/08 10:55:17;;;;;;;9.23;8.13;;;;;;;;;;5011469;28;20833;-58
2022/05/08 10:57:47;;;;;;;11.30;9.47;;;;;;;;;;5010618;28;20424;-52
2022/05/08 11:00:33;;;;;;;8.93;8.10;;;;;;;;;;5011526;28;20800;-62
2022/05/08 11:03:00;;;;;;;11.10;8.63;;;;;;;;;;5011134;28;20441;-63
2022/05/08 11:05:28;;;;;;;9.70;8.80;;;;;;;;;;5011220;28;20401;-55
2022/05/08 11:07:54;;;;;;;33.73;17.47;;;;;;;;;;5011360;28;20981;-57
2022/05/08 11:10:25;;;;;;;9.17;8.27;;;;;;;;;;5011251;28;20402;-58
2022/05/08 11:12:55;;;;;;;13.53;10.10;;;;;;;;;;5011154;28;20405;-55
2022/05/08 11:15:22;;;;;;;11.33;7.27;;;;;;;;;;4993545;28;20924;-54
2022/05/08 11:17:50;;;;;;;8.00;7.20;;;;;;;;;;4993516;28;20401;-51
2022/05/08 11:20:16;;;;;;;8.60;7.80;;;;;;;;;;5011902;28;20453;-56
2022/05/08 11:22:56;;;;;;;12.00;9.80;;;;;;;;;;4994538;28;20440;-58
2022/05/08 11:25:22;;;;;;;7.93;7.13;;;;;;;;;;5011473;28;20220;-62
2022/05/08 11:27:54;;;;;;;6.30;5.80;;;;;;;;;;5011664;28;20470;-59
2022/05/08 11:30:31;;;;;;;15.10;7.53;;;;;;;;;;4994039;28;20830;-54
2022/05/08 11:36:04;;;;;;;11.93;7.70;;;;;;;;;;5011164;28;20762;-56
2022/05/08 11:38:53;;;;;;;13.67;8.20;;;;;;;;;;5011709;28;20410;-60
2022/05/08 11:41:19;;;;;;;8.30;7.40;;;;;;;;;;5010690;28;20397;-57
2022/05/08 11:43:45;;;;;;;14.43;7.13;;;;;;;;;;5011456;28;20409;-58
2022/05/08 11:46:15;;;;;;;8.23;7.43;;;;;;;;;;5011666;28;20890;-53
2022/05/08 11:48:47;;;;;;;9.10;7.03;;;;;;;;;;5011196;28;20550;-59
2022/05/08 11:51:22;;;;;;;9.37;7.30;;;;;;;;;;5011521;28;20402;-58
2022/05/08 11:53:51;;;;;;;8.67;7.07;;;;;;;;;;5011421;28;20397;-51
2022/05/08 11:56:28;;;;;;;12.70;7.10;;;;;;;;;;4994283;28;20414;-59
2022/05/08 11:59:15;;;;;;;9.63;7.33;;;;;;;;;;5011335;28;20469;-56
2022/05/08 12:01:47;;;;;;;8.00;7.20;;;;;;;;;;4993560;28;20492;-55
2022/05/08 12:04:22;;;;;;;7.43;6.67;;;;;;;;;;5011357;28;20914;-58
2022/05/08 12:07:02;;;;;;;7.77;7.00;;;;;;;;;;5011036;28;20468;-52
2022/05/08 12:09:38;;;;;;;10.40;7.40;;;;;;;;;;5011167;28;20417;-57
2022/05/08 12:12:23;;;;;;;7.43;6.73;;;;;;;;;;5011149;28;20437;-53
2022/05/08 12:14:50;;;;;;;13.27;7.10;;;;;;;;;;5010976;28;20493;-58
2022/05/08 12:17:16;;;;;;;8.23;6.77;;;;;;;;;;5011321;28;20921;-53
2022/05/08 12:19:53;;;;;;;8.80;6.80;;;;;;;;;;5010980;28;20457;-58
2022/05/08 12:22:19;;;;;;;10.87;6.97;;;;;;;;;;5010992;28;20473;-58
2022/05/08 12:24:46;;;;;;;8.73;5.97;;;;;;;;;;5011262;28;20951;-55
2022/05/08 12:27:15;;;;;;;7.97;6.63;;;;;;;;;;5010798;28;20557;-56
2022/05/08 12:29:43;;;;;;;9.70;6.90;;;;;;;;;;5015658;28;20425;-54
2022/05/08 12:32:09;;;;;;;11.83;7.30;;;;;;;;;;5010653;28;20417;-59
2022/05/08 12:34:35;;;;;;;7.90;6.53;;;;;;;;;;5010954;28;20402;-53
2022/05/08 12:37:01;;;;;;;10.77;6.73;;;;;;;;;;5010801;28;20414;-56
2022/05/08 12:39:30;;;;;;;8.70;7.00;;;;;;;;;;5010796;28;20483;-57
2022/05/08 12:41:56;;;;;;;7.10;6.20;;;;;;;;;;4993102;28;20508;-53
2022/05/08 12:44:22;;;;;;;8.93;6.70;;;;;;;;;;5010690;28;20447;-56
2022/05/08 12:46:49;;;;;;;8.53;6.40;;;;;;;;;;5010785;28;20510;-55
2022/05/08 12:49:16;;;;;;;11.83;6.50;;;;;;;;;;5010789;28;20417;-59
2022/05/08 12:51:42;;;;;;;8.53;6.20;;;;;;;;;;5010369;28;20421;-51
2022/05/08 12:54:09;;;;;;;7.63;6.30;;;;;;;;;;5010630;28;20927;-73
2022/05/08 12:56:35;;;;;;;10.10;6.83;;;;;;;;;;4993060;28;20519;-58
2022/05/08 13:01:46;;;;;;;8.27;5.40;;;;;;;;;;5010705;28;20443;-67
2022/05/08 13:04:13;;;;;;;7.90;5.53;;;;;;;;;;5010486;28;20428;-59
2022/05/08 13:06:39;;;;;;;7.23;5.93;;;;;;;;;;5010222;28;20511;-68
2022/05/08 13:09:08;;;;;;;10.70;5.53;;;;;;;;;;5010238;28;20445;-60
2022/05/08 13:11:38;;;;;;;9.23;5.33;;;;;;;;;;5010301;28;20414;-69
2022/05/08 13:14:05;;;;;;;5.97;5.37;;;;;;;;;;4992756;28;20422;-68
2022/05/08 13:16:31;;;;;;;7.90;6.10;;;;;;;;;;5010313;28;20420;-61
2022/05/08 13:18:57;;;;;;;7.30;5.17;;;;;;;;;;5009908;28;20410;-62
2022/05/08 13:21:25;;;;;;;7.23;5.33;;;;;;;;;;5009892;28;20480;-54
2022/05/08 13:23:51;;;;;;;8.40;4.87;;;;;;;;;;5009955;28;20406;-58
2022/05/08 13:26:17;;;;;;;10.50;5.90;;;;;;;;;;4992517;28;22379;-56
2022/05/08 13:28:43;;;;;;;13.07;5.37;;;;;;;;;;5010032;28;20410;-58
2022/05/08 13:31:09;;;;;;;7.10;5.30;;;;;;;;;;5009902;28;20409;-61
2022/05/08 13:33:36;;;;;;;8.17;4.80;;;;;;;;;;5009731;28;20421;-61
2022/05/08 13:36:02;;;;;;;6.73;4.63;;;;;;;;;;5010005;28;20418;-52
2022/05/08 13:38:28;;;;;;;7.43;4.93;;;;;;;;;;5009744;28;20562;-55
2022/05/08 13:40:59;;;;;;;10.27;5.10;;;;;;;;;;5009993;28;20424;-57
2022/05/08 13:43:25;;;;;;;6.70;5.00;;;;;;;;;;5009761;28;20505;-55
2022/05/08 13:45:52;;;;;;;5.63;4.73;;;;;;;;;;5009713;28;20983;-59
2022/05/08 13:48:21;;;;;;;9.00;6.67;;;;;;;;;;5009537;28;20474;-61
2022/05/08 13:50:49;;;;;;;7.33;5.03;;;;;;;;;;5009576;28;20425;-55
2022/05/08 13:53:15;;;;;;;7.90;4.57;;;;;;;;;;4992382;28;20425;-53
2022/05/08 13:55:50;;;;;;;7.10;5.27;;;;;;;;;;5009617;28;20405;-58
2022/05/08 13:58:17;;;;;;;5.87;3.83;;;;;;;;;;5009713;28;20800;-53
2022/05/08 14:00:50;;;;;;;6.60;4.20;;;;;;;;;;5009840;28;20449;-59
2022/05/08 14:03:17;;;;;;;8.53;3.73;;;;;;;;;;5009607;28;20405;-61
2022/05/08 14:05:43;;;;;;;6.90;4.63;;;;;;;;;;5009784;28;20426;-58
2022/05/08 14:08:09;;;;;;;4.90;3.90;;;;;;;;;;5009404;28;20478;-58
2022/05/08 14:10:36;;;;;;;5.50;4.73;;;;;;;;;;5017198;28;20973;-59
2022/05/08 14:13:02;;;;;;;12.30;3.80;;;;;;;;;;5023107;28;20408;-61
2022/05/08 14:15:28;;;;;;;4.20;3.80;;;;;;;;;;5025948;28;20428;-56
2022/05/08 14:17:54;;;;;;;4.77;3.53;;;;;;;;;;5016885;28;20504;-56
2022/05/08 14:20:21;;;;;;;7.90;3.50;;;;;;;;;;5017489;28;20453;-55
2022/05/08 14:22:47;;;;;;;7.30;3.70;;;;;;;;;;5019644;28;20438;-59
2022/05/08 14:25:14;;;;;;;8.00;4.10;;;;;;;;;;5022038;28;20471;-56
2022/05/08 14:27:40;;;;;;;4.90;4.30;;;;;;;;;;5028752;28;21026;-63
2022/05/08 14:30:09;;;;;;;9.03;4.80;;;;;;;;;;5028939;28;20451;-57
2022/05/08 14:38:08;;;;;;;6.13;3.80;;;;;;;;;;5032314;28;20930;-60
2022/05/08 14:40:35;;;;;;;3.93;3.03;;;;;;;;;;5032306;28;20409;-57
2022/05/08 14:43:01;;;;;;;5.20;3.20;;;;;;;;;;5032215;28;20407;-57
2022/05/08 14:45:31;;;;;;;3.63;3.30;;;;;;;;;;5028536;28;20401;-54
2022/05/08 14:47:58;;;;;;;5.40;3.37;;;;;;;;;;5021806;28;20534;-61
2022/05/08 14:50:24;;;;;;;3.53;2.70;;;;;;;;;;5021045;28;20409;-60
2022/05/08 14:52:50;;;;;;;3.20;2.87;;;;;;;;;;5007862;28;20453;-55
2022/05/08 14:55:16;;;;;;;3.70;3.17;;;;;;;;;;5023732;28;20896;-59
2022/05/08 14:57:42;;;;;;;3.73;2.67;;;;;;;;;;5023927;28;20420;-57
2022/05/08 15:00:09;;;;;;;7.07;4.00;;;;;;;;;;5025920;28;20413;-53
2022/05/08 15:02:35;;;;;;;3.67;3.27;;;;;;;;;;5020415;28;20845;-55
2022/05/08 15:05:01;;;;;;;5.10;3.23;;;;;;;;;;5019972;28;20450;-55